createdAt,value
2023-03-02T00:01:54.842Z,2.10
2023-03-02T00:04:37.630Z,2.10
2023-03-02T00:07:08.330Z,2.00
2023-03-02T00:09:36.557Z,1.90
2023-03-02T00:12:05.107Z,1.80
2023-03-02T00:14:32.584Z,1.80
2023-03-02T00:17:04.631Z,1.80
2023-03-02T00:19:32.129Z,1.80
2023-03-02T00:21:59.410Z,1.80
2023-03-02T00:24:26.703Z,1.70
2023-03-02T00:26:54.181Z,1.70
2023-03-02T00:29:21.670Z,1.70
2023-03-02T00:31:49.141Z,1.70
2023-03-02T00:34:17.333Z,1.80
2023-03-02T00:36:49.688Z,1.80
2023-03-02T00:39:20.443Z,1.80
2023-03-02T00:41:48.785Z,1.90
2023-03-02T00:44:19.187Z,1.90
2023-03-02T00:46:46.924Z,1.90
2023-03-02T00:49:14.179Z,1.90
2023-03-02T00:51:41.465Z,1.90
2023-03-02T00:54:08.680Z,1.90
2023-03-02T00:56:36.128Z,1.80
2023-03-02T00:59:27.728Z,1.80
2023-03-02T01:01:59.719Z,1.80
2023-03-02T01:04:32.812Z,1.80
2023-03-02T01:07:04.619Z,1.80
2023-03-02T01:09:31.962Z,1.80
2023-03-02T01:11:59.285Z,1.80
2023-03-02T01:14:27.112Z,1.70
2023-03-02T01:16:54.678Z,1.70
2023-03-02T01:19:22.060Z,1.70
2023-03-02T01:21:49.523Z,1.70
2023-03-02T01:24:16.958Z,1.70
2023-03-02T01:26:44.424Z,1.60
2023-03-02T01:29:12.078Z,1.50
2023-03-02T01:31:39.626Z,1.50
2023-03-02T01:34:07.121Z,1.50
2023-03-02T01:36:35.244Z,1.50
2023-03-02T01:39:02.532Z,1.50
2023-03-02T01:41:29.992Z,1.50
2023-03-02T01:43:57.546Z,1.50
2023-03-02T01:46:28.917Z,1.50
2023-03-02T01:49:05.788Z,1.50
2023-03-02T01:51:46.651Z,1.50
2023-03-02T01:54:23.396Z,1.50
2023-03-02T01:56:58.737Z,1.50
2023-03-02T01:59:28.908Z,1.50
2023-03-02T02:01:58.955Z,1.50
2023-03-02T02:04:29.309Z,1.50
2023-03-02T02:07:02.206Z,1.60
2023-03-02T02:09:34.476Z,1.50
2023-03-02T02:12:01.873Z,1.50
2023-03-02T02:14:29.439Z,1.40
2023-03-02T02:16:57.332Z,1.40
2023-03-02T02:19:42.760Z,1.40
2023-03-02T02:22:11.707Z,1.40
2023-03-02T02:24:54.117Z,1.40
2023-03-02T02:27:22.160Z,1.30
2023-03-02T02:29:52.197Z,1.40
2023-03-02T02:32:28.661Z,1.30
2023-03-02T02:35:12.223Z,1.40
2023-03-02T02:37:52.163Z,1.30
2023-03-02T02:40:40.701Z,1.40
2023-03-02T02:43:11.766Z,1.40
2023-03-02T02:45:39.367Z,1.40
2023-03-02T02:48:15.696Z,1.40
2023-03-02T02:50:44.795Z,1.40
2023-03-02T02:53:21.852Z,1.40
2023-03-02T02:55:52.883Z,1.30
2023-03-02T02:58:33.295Z,1.30
2023-03-02T03:01:01.515Z,1.30
2023-03-02T03:03:36.097Z,1.30
2023-03-02T03:06:06.765Z,1.30
2023-03-02T03:09:01.299Z,1.30
2023-03-02T03:11:31.294Z,1.30
2023-03-02T03:14:39.467Z,1.20
2023-03-02T03:17:12.468Z,1.20
2023-03-02T03:19:45.136Z,1.20
2023-03-02T03:22:15.127Z,1.20
2023-03-02T03:24:44.515Z,1.20
2023-03-02T03:27:15.184Z,1.20
2023-03-02T03:29:50.614Z,1.20
2023-03-02T03:32:18.465Z,1.20
2023-03-02T03:34:46.232Z,1.30
2023-03-02T03:37:16.440Z,1.30
2023-03-02T03:39:44.264Z,1.30
2023-03-02T03:42:12.391Z,1.30
2023-03-02T03:44:39.570Z,1.30
2023-03-02T03:47:06.922Z,1.30
2023-03-02T03:49:34.096Z,1.30
2023-03-02T03:52:01.375Z,1.30
2023-03-02T03:54:28.773Z,1.30
2023-03-02T03:56:58.868Z,1.30
2023-03-02T03:59:28.301Z,1.30
2023-03-02T04:01:58.223Z,1.20
2023-03-02T04:04:32.704Z,1.20
2023-03-02T04:07:00.515Z,1.20
2023-03-02T04:09:28.019Z,1.10
2023-03-02T04:11:56.725Z,1.00
2023-03-02T04:14:25.406Z,1.00
2023-03-02T04:16:53.130Z,1.00
2023-03-02T04:19:21.301Z,1.00
2023-03-02T04:21:52.681Z,1.00
2023-03-02T04:24:21.717Z,1.10
2023-03-02T04:26:49.531Z,1.10
2023-03-02T04:29:17.863Z,1.10
2023-03-02T04:31:45.089Z,1.10
2023-03-02T04:34:12.870Z,1.10
2023-03-02T04:36:41.502Z,1.10
2023-03-02T04:39:10.849Z,1.20
2023-03-02T04:41:38.155Z,1.20
2023-03-02T04:44:05.478Z,1.30
2023-03-02T04:46:34.754Z,1.30
2023-03-02T04:49:02.498Z,1.20
2023-03-02T04:51:32.917Z,1.20
2023-03-02T04:54:03.316Z,1.20
2023-03-02T04:56:31.707Z,1.10
2023-03-02T04:58:59.507Z,1.10
2023-03-02T05:01:27.418Z,1.00
2023-03-02T05:03:57.676Z,0.90
2023-03-02T05:06:28.063Z,0.80
2023-03-02T05:08:55.219Z,0.80
2023-03-02T05:11:26.194Z,0.80
2023-03-02T05:13:56.057Z,0.70
2023-03-02T05:16:25.114Z,0.70
2023-03-02T05:18:52.304Z,0.80
2023-03-02T05:21:20.154Z,0.80
2023-03-02T05:23:47.500Z,0.80
2023-03-02T05:26:15.285Z,0.90
2023-03-02T05:28:42.828Z,0.90
2023-03-02T05:31:12.098Z,0.90
2023-03-02T05:33:39.431Z,1.00
2023-03-02T05:36:06.832Z,1.00
2023-03-02T05:38:34.715Z,1.00
2023-03-02T05:41:02.129Z,1.10
2023-03-02T05:43:29.571Z,1.10
2023-03-02T05:46:00.805Z,1.20
2023-03-02T05:48:29.171Z,1.20
2023-03-02T05:50:56.605Z,1.30
2023-03-02T05:53:26.994Z,1.30
2023-03-02T05:55:54.694Z,1.20
2023-03-02T05:58:22.270Z,1.20
2023-03-02T06:00:50.201Z,1.10
2023-03-02T06:03:17.553Z,1.10
2023-03-02T06:05:45.123Z,1.10
2023-03-02T06:08:12.443Z,1.10
2023-03-02T06:10:39.823Z,1.00
2023-03-02T06:13:09.351Z,1.10
2023-03-02T06:15:37.341Z,1.00
2023-03-02T06:18:04.675Z,1.00
2023-03-02T06:20:31.840Z,1.00
2023-03-02T06:22:59.163Z,1.00
2023-03-02T06:25:26.603Z,1.00
2023-03-02T06:27:54.007Z,1.00
2023-03-02T06:30:25.607Z,1.00
2023-03-02T06:32:53.055Z,1.00
2023-03-02T06:35:21.443Z,0.90
2023-03-02T06:37:48.817Z,0.90
2023-03-02T06:40:16.278Z,0.90
2023-03-02T06:42:43.772Z,0.90
2023-03-02T06:45:12.359Z,0.90
2023-03-02T06:47:39.589Z,1.00
2023-03-02T06:50:08.398Z,1.00
2023-03-02T06:52:36.064Z,1.00
2023-03-02T06:55:04.218Z,1.00
2023-03-02T06:57:34.410Z,1.00
2023-03-02T07:00:08.903Z,1.00
2023-03-02T07:02:37.266Z,1.00
2023-03-02T07:05:05.385Z,1.00
2023-03-02T07:07:32.779Z,1.00
2023-03-02T07:09:59.914Z,1.00
2023-03-02T07:12:27.490Z,1.00
2023-03-02T07:14:54.578Z,1.00
2023-03-02T07:17:21.825Z,1.00
2023-03-02T07:19:49.089Z,1.10
2023-03-02T07:22:16.393Z,1.10
2023-03-02T07:24:45.030Z,1.20
2023-03-02T07:27:12.503Z,1.20
2023-03-02T07:29:39.862Z,1.20
2023-03-02T07:32:07.337Z,1.20
2023-03-02T07:34:36.616Z,1.30
2023-03-02T07:37:04.256Z,1.30
2023-03-02T07:39:31.604Z,1.30
2023-03-02T07:42:03.306Z,1.30
2023-03-02T07:44:31.074Z,1.20
2023-03-02T07:46:58.805Z,1.20
2023-03-02T07:49:26.234Z,1.10
2023-03-02T07:51:53.619Z,1.10
2023-03-02T07:54:21.729Z,1.10
2023-03-02T07:56:48.868Z,1.20
2023-03-02T07:59:18.793Z,1.20
2023-03-02T08:01:46.099Z,1.20
2023-03-02T08:04:13.276Z,1.20
2023-03-02T08:06:43.431Z,1.30
2023-03-02T08:09:10.756Z,1.40
2023-03-02T08:11:38.023Z,1.40
2023-03-02T08:14:05.293Z,1.50
2023-03-02T08:16:32.914Z,1.50
2023-03-02T08:19:00.477Z,1.50
2023-03-02T08:21:29.046Z,1.50
2023-03-02T08:23:57.877Z,1.50
2023-03-02T08:26:25.391Z,1.50
2023-03-02T08:28:55.316Z,1.60
2023-03-02T08:31:22.685Z,1.50
2023-03-02T08:33:50.169Z,1.60
2023-03-02T08:36:19.379Z,1.60
2023-03-02T08:38:47.905Z,1.60
2023-03-02T08:41:18.122Z,1.60
2023-03-02T08:43:45.491Z,1.60
2023-03-02T08:46:14.816Z,1.60
2023-03-02T08:48:43.192Z,1.60
2023-03-02T08:51:17.335Z,1.60
2023-03-02T08:53:47.711Z,1.60
2023-03-02T08:56:25.156Z,1.60
2023-03-02T08:58:53.774Z,1.70
2023-03-02T09:01:23.823Z,1.70
2023-03-02T09:03:52.158Z,1.70
2023-03-02T09:06:19.877Z,1.70
2023-03-02T09:08:47.686Z,1.80
2023-03-02T09:11:17.415Z,1.80
2023-03-02T09:13:44.635Z,1.80
2023-03-02T09:16:12.604Z,1.90
2023-03-02T09:18:40.126Z,1.90
2023-03-02T09:21:07.360Z,2.00
2023-03-02T09:23:36.850Z,2.00
2023-03-02T09:26:06.786Z,2.00
2023-03-02T09:28:34.312Z,2.00
2023-03-02T09:31:04.465Z,2.00
2023-03-02T09:33:32.831Z,2.00
2023-03-02T09:36:01.646Z,2.00
2023-03-02T09:38:29.052Z,2.00
2023-03-02T09:40:59.421Z,2.10
2023-03-02T09:43:29.622Z,2.10
2023-03-02T09:46:13.470Z,2.10
2023-03-02T09:48:54.048Z,2.10
2023-03-02T09:51:31.479Z,2.20
2023-03-02T09:54:13.587Z,2.20
2023-03-02T09:56:46.873Z,2.20
2023-03-02T09:59:42.217Z,2.30
2023-03-02T10:02:30.901Z,2.30
2023-03-02T10:05:00.956Z,2.40
2023-03-02T10:07:33.955Z,2.40
2023-03-02T10:10:15.237Z,2.50
2023-03-02T10:12:57.565Z,2.50
2023-03-02T10:15:38.492Z,2.60
2023-03-02T10:18:31.720Z,2.60
2023-03-02T10:21:23.395Z,2.70
2023-03-02T10:24:01.544Z,2.70
2023-03-02T10:26:35.005Z,2.70
2023-03-02T10:29:11.267Z,2.70
2023-03-02T10:31:41.526Z,2.70
2023-03-02T10:34:11.574Z,2.70
2023-03-02T10:36:41.316Z,2.70
2023-03-02T10:39:14.527Z,2.80
2023-03-02T10:42:05.244Z,2.90
2023-03-02T10:44:41.041Z,2.90
2023-03-02T10:47:20.271Z,2.90
2023-03-02T10:49:48.326Z,3.00
2023-03-02T10:52:16.719Z,3.00
2023-03-02T10:54:43.937Z,3.00
2023-03-02T10:57:39.703Z,2.90
2023-03-02T11:00:25.324Z,2.90
2023-03-02T11:02:55.485Z,2.80
2023-03-02T11:05:45.725Z,2.80
2023-03-02T11:08:27.740Z,2.90
2023-03-02T11:11:01.507Z,2.90
2023-03-02T11:13:38.211Z,3.00
2023-03-02T11:16:24.182Z,3.00
2023-03-02T11:19:05.587Z,2.90
2023-03-02T11:21:39.828Z,2.90
2023-03-02T11:24:33.867Z,2.90
2023-03-02T11:27:12.882Z,2.90
2023-03-02T11:29:57.967Z,2.90
2023-03-02T11:32:37.330Z,2.90
2023-03-02T11:35:15.274Z,2.90
2023-03-02T11:37:52.785Z,3.00
2023-03-02T11:40:26.799Z,3.00
2023-03-02T11:42:58.713Z,3.00
2023-03-02T11:45:45.394Z,3.00
2023-03-02T11:48:42.097Z,3.10
2023-03-02T11:51:17.208Z,3.10
2023-03-02T11:53:51.428Z,3.10
2023-03-02T11:56:18.776Z,3.10
2023-03-02T11:58:53.408Z,3.10
2023-03-02T12:01:27.478Z,3.20
2023-03-02T12:06:44.247Z,3.30
2023-03-02T12:09:23.807Z,3.30
2023-03-02T12:12:29.989Z,3.40
2023-03-02T12:15:01.352Z,3.40
2023-03-02T12:17:33.389Z,3.40
2023-03-02T12:20:21.876Z,3.40
2023-03-02T12:22:51.671Z,3.40
2023-03-02T12:25:21.826Z,3.50
2023-03-02T12:27:51.493Z,3.50
2023-03-02T12:30:27.750Z,3.60
2023-03-02T12:33:21.534Z,3.60
2023-03-02T12:35:52.949Z,3.60
2023-03-02T12:38:34.214Z,3.70
2023-03-02T12:41:33.144Z,3.70
2023-03-02T12:44:14.681Z,3.70
2023-03-02T12:46:46.997Z,3.70
2023-03-02T12:49:27.610Z,3.70
2023-03-02T12:52:03.530Z,3.70
2023-03-02T12:54:33.955Z,3.80
2023-03-02T12:57:16.315Z,3.80
2023-03-02T12:59:44.006Z,3.80
2023-03-02T13:02:21.773Z,3.80
2023-03-02T13:05:04.109Z,3.80
2023-03-02T13:07:39.978Z,3.80
2023-03-02T13:10:22.369Z,3.70
2023-03-02T13:12:49.744Z,3.60
2023-03-02T13:15:18.260Z,3.60
2023-03-02T13:17:52.789Z,3.60
2023-03-02T13:20:22.668Z,3.70
2023-03-02T13:22:50.450Z,3.70
2023-03-02T13:25:30.003Z,3.70
2023-03-02T13:28:07.658Z,3.70
2023-03-02T13:30:37.800Z,3.70
2023-03-02T13:33:23.143Z,3.70
2023-03-02T13:35:50.712Z,3.70
2023-03-02T13:38:21.032Z,3.70
2023-03-02T13:40:54.103Z,3.70
2023-03-02T13:43:30.134Z,3.70
2023-03-02T13:46:00.285Z,3.70
2023-03-02T13:48:29.255Z,3.70
2023-03-02T13:51:15.670Z,3.70
2023-03-02T13:53:54.010Z,3.80
2023-03-02T13:56:29.809Z,3.80
2023-03-02T13:58:57.550Z,3.80
2023-03-02T14:01:25.141Z,3.80
2023-03-02T14:03:52.319Z,3.80
2023-03-02T14:06:19.894Z,3.70
2023-03-02T14:08:47.574Z,3.70
2023-03-02T14:11:16.098Z,3.70
2023-03-02T14:13:55.934Z,3.70
2023-03-02T14:16:25.522Z,3.70
2023-03-02T14:18:52.959Z,3.70
2023-03-02T14:21:22.801Z,3.80
2023-03-02T14:23:52.740Z,3.80
2023-03-02T14:26:45.242Z,3.80
2023-03-02T14:29:22.788Z,3.80
2023-03-02T14:31:50.241Z,3.80
2023-03-02T14:34:18.268Z,3.80
2023-03-02T14:36:48.452Z,3.80
2023-03-02T14:39:30.742Z,3.70
2023-03-02T14:41:58.470Z,3.70
2023-03-02T14:44:25.945Z,3.70
2023-03-02T14:46:53.567Z,3.70
2023-03-02T14:49:21.568Z,3.70
2023-03-02T14:52:13.020Z,3.60
2023-03-02T14:54:56.799Z,3.70
2023-03-02T14:57:26.281Z,3.70
2023-03-02T14:59:54.683Z,3.80
2023-03-02T15:02:27.187Z,3.80
2023-03-02T15:04:57.607Z,3.80
2023-03-02T15:07:26.928Z,3.70
2023-03-02T15:09:55.910Z,3.70
2023-03-02T15:12:23.621Z,3.70
2023-03-02T15:14:50.751Z,3.70
2023-03-02T15:17:17.996Z,3.60
2023-03-02T15:19:45.417Z,3.60
2023-03-02T15:22:13.640Z,3.60
2023-03-02T15:24:40.934Z,3.50
2023-03-02T15:27:08.306Z,3.60
2023-03-02T15:29:35.712Z,3.60
2023-03-02T15:32:02.922Z,3.60
2023-03-02T15:34:30.050Z,3.60
2023-03-02T15:36:57.713Z,3.60
2023-03-02T15:39:24.992Z,3.70
2023-03-02T15:41:54.033Z,3.70
2023-03-02T15:44:24.335Z,3.70
2023-03-02T15:46:54.573Z,3.80
2023-03-02T15:49:24.763Z,3.80
2023-03-02T15:51:52.329Z,3.80
2023-03-02T15:54:19.857Z,3.90
2023-03-02T15:56:54.253Z,3.90
2023-03-02T15:59:23.658Z,3.90
2023-03-02T16:01:51.653Z,3.90
2023-03-02T16:04:18.993Z,3.90
2023-03-02T16:06:46.490Z,3.80
2023-03-02T16:09:13.846Z,3.90
2023-03-02T16:11:41.131Z,3.90
2023-03-02T16:14:08.470Z,3.90
2023-03-02T16:16:36.420Z,3.90
2023-03-02T16:19:03.959Z,3.90
2023-03-02T16:21:31.149Z,3.90
2023-03-02T16:24:05.165Z,3.90
2023-03-02T16:26:34.325Z,3.90
2023-03-02T16:29:02.025Z,3.90
2023-03-02T16:31:32.653Z,3.90
2023-03-02T16:34:04.014Z,3.90
2023-03-02T16:36:31.436Z,4.00
2023-03-02T16:38:58.667Z,4.00
2023-03-02T16:41:26.185Z,4.00
2023-03-02T16:43:56.902Z,4.00
2023-03-02T16:46:26.468Z,4.00
2023-03-02T16:48:54.879Z,4.10
2023-03-02T16:51:22.535Z,4.10
2023-03-02T16:53:49.967Z,4.10
2023-03-02T16:56:17.450Z,4.10
2023-03-02T16:58:44.996Z,4.10
2023-03-02T17:01:17.577Z,4.10
2023-03-02T17:03:46.339Z,4.10
2023-03-02T17:06:15.811Z,4.10
2023-03-02T17:08:43.103Z,4.10
2023-03-02T17:11:10.775Z,4.00
2023-03-02T17:13:38.840Z,4.00
2023-03-02T17:16:06.368Z,4.00
2023-03-02T17:18:34.329Z,4.00
2023-03-02T17:21:02.455Z,4.00
2023-03-02T17:23:31.867Z,4.00
2023-03-02T17:25:59.207Z,4.00
2023-03-02T17:28:26.409Z,4.00
2023-03-02T17:30:53.840Z,4.00
2023-03-02T17:33:21.049Z,4.00
2023-03-02T17:35:48.310Z,4.10
2023-03-02T17:38:15.930Z,4.10
2023-03-02T17:40:43.907Z,4.10
2023-03-02T17:43:12.753Z,4.20
2023-03-02T17:45:40.513Z,4.20
2023-03-02T17:48:07.898Z,4.20
2023-03-02T17:50:40.270Z,4.20
2023-03-02T17:53:07.612Z,4.20
2023-03-02T17:55:38.380Z,4.20
2023-03-02T17:58:05.719Z,4.20
2023-03-02T18:00:36.209Z,4.20
2023-03-02T18:03:03.771Z,4.20
2023-03-02T18:05:31.201Z,4.20
2023-03-02T18:07:58.426Z,4.20
2023-03-02T18:10:25.849Z,4.20
2023-03-02T18:12:57.166Z,4.20
2023-03-02T18:15:24.870Z,4.20
2023-03-02T18:17:52.107Z,4.30
2023-03-02T18:20:19.616Z,4.20
2023-03-02T18:22:47.529Z,4.30
2023-03-02T18:25:16.104Z,4.20
2023-03-02T18:27:43.402Z,4.20
2023-03-02T18:30:12.115Z,4.20
2023-03-02T18:32:39.437Z,4.30
2023-03-02T18:35:07.372Z,4.30
2023-03-02T18:37:35.240Z,4.20
2023-03-02T18:40:02.664Z,4.20
2023-03-02T18:42:30.642Z,4.20
2023-03-02T18:45:01.373Z,4.20
2023-03-02T18:47:34.194Z,4.20
2023-03-02T18:50:02.625Z,4.20
2023-03-02T18:52:29.870Z,4.20
2023-03-02T18:54:58.232Z,4.20
2023-03-02T18:57:26.078Z,4.20
2023-03-02T18:59:53.414Z,4.20
2023-03-02T19:02:20.613Z,4.20
2023-03-02T19:04:48.563Z,4.20
2023-03-02T19:07:18.105Z,4.20
2023-03-02T19:09:45.428Z,4.20
2023-03-02T19:12:15.417Z,4.20
2023-03-02T19:14:44.048Z,4.20
2023-03-02T19:17:11.542Z,4.20
2023-03-02T19:19:38.749Z,4.10
2023-03-02T19:22:06.618Z,4.10
2023-03-02T19:24:33.964Z,4.10
2023-03-02T19:27:02.792Z,4.10
2023-03-02T19:29:30.219Z,4.10
2023-03-02T19:31:57.693Z,4.00
2023-03-02T19:34:27.685Z,4.00
2023-03-02T19:36:54.955Z,4.00
2023-03-02T19:39:22.238Z,4.00
2023-03-02T19:41:49.747Z,4.00
2023-03-02T19:44:19.723Z,4.10
2023-03-02T19:46:47.164Z,4.10
2023-03-02T19:49:14.340Z,4.10
2023-03-02T19:51:41.982Z,4.10
2023-03-02T19:54:09.151Z,4.10
2023-03-02T19:56:40.401Z,4.00
2023-03-02T19:59:08.136Z,4.00
2023-03-02T20:01:35.992Z,4.00
2023-03-02T20:04:04.092Z,4.00
2023-03-02T20:06:34.358Z,4.00
2023-03-02T20:09:05.733Z,4.00
2023-03-02T20:11:33.302Z,4.00
2023-03-02T20:14:03.988Z,4.00
2023-03-02T20:16:34.044Z,4.00
2023-03-02T20:19:02.430Z,4.00
2023-03-02T20:21:34.877Z,4.00
2023-03-02T20:24:02.489Z,4.00
2023-03-02T20:26:29.856Z,4.00
2023-03-02T20:28:59.282Z,4.00
2023-03-02T20:31:27.095Z,3.90
2023-03-02T20:33:56.393Z,4.00
2023-03-02T20:36:30.126Z,3.90
2023-03-02T20:39:22.606Z,3.90
2023-03-02T20:41:50.580Z,3.80
2023-03-02T20:44:18.199Z,3.80
2023-03-02T20:46:53.774Z,3.80
2023-03-02T20:49:25.846Z,3.70
2023-03-02T20:51:55.114Z,3.70
2023-03-02T20:54:25.991Z,3.60
2023-03-02T20:56:54.487Z,3.60
2023-03-02T20:59:23.025Z,3.60
2023-03-02T21:01:51.272Z,3.60
2023-03-02T21:04:20.007Z,3.60
2023-03-02T21:06:47.980Z,3.50
2023-03-02T21:09:15.788Z,3.50
2023-03-02T21:11:44.014Z,3.50
2023-03-02T21:14:14.500Z,3.50
2023-03-02T21:16:44.593Z,3.50
2023-03-02T21:19:16.348Z,3.50
2023-03-02T21:21:44.361Z,3.50
2023-03-02T21:24:17.007Z,3.40
2023-03-02T21:26:49.479Z,3.40
2023-03-02T21:29:21.505Z,3.40
2023-03-02T21:31:48.934Z,3.50
2023-03-02T21:34:19.289Z,3.40
2023-03-02T21:36:47.101Z,3.40
2023-03-02T21:39:14.781Z,3.40
2023-03-02T21:41:42.222Z,3.40
2023-03-02T21:44:09.885Z,3.50
2023-03-02T21:46:41.921Z,3.40
2023-03-02T21:49:09.164Z,3.50
2023-03-02T21:51:36.518Z,3.50
2023-03-02T21:54:05.045Z,3.50
2023-03-02T21:56:32.122Z,3.50
2023-03-02T21:59:02.201Z,3.50
2023-03-02T22:01:30.224Z,3.50
2023-03-02T22:03:58.409Z,3.50
2023-03-02T22:06:31.553Z,3.50
2023-03-02T22:08:59.816Z,3.50
2023-03-02T22:11:33.524Z,3.50
2023-03-02T22:14:17.589Z,3.50
2023-03-02T22:16:47.607Z,3.50
2023-03-02T22:19:27.284Z,3.50
2023-03-02T22:22:03.383Z,3.50
2023-03-02T22:24:32.702Z,3.50
2023-03-02T22:27:04.677Z,3.50
2023-03-02T22:29:52.550Z,3.50
2023-03-02T22:32:25.824Z,3.50
2023-03-02T22:35:14.311Z,3.40
2023-03-02T22:37:41.712Z,3.40
2023-03-02T22:40:21.863Z,3.40
2023-03-02T22:42:49.015Z,3.40
2023-03-02T22:45:21.565Z,3.40
2023-03-02T22:47:53.023Z,3.40
2023-03-02T22:50:30.319Z,3.40
2023-03-02T22:53:00.717Z,3.40
2023-03-02T22:55:43.306Z,3.40
2023-03-02T22:58:32.652Z,3.40
2023-03-02T23:01:01.612Z,3.30
2023-03-02T23:03:39.158Z,3.20
2023-03-02T23:06:27.572Z,3.20
2023-03-02T23:08:58.106Z,3.20
2023-03-02T23:11:29.798Z,3.20
2023-03-02T23:14:00.108Z,3.20
2023-03-02T23:16:29.560Z,3.20
2023-03-02T23:18:59.638Z,3.20
2023-03-02T23:21:48.409Z,3.20
2023-03-02T23:24:18.156Z,3.20
2023-03-02T23:26:46.072Z,3.20
2023-03-02T23:29:13.572Z,3.20
2023-03-02T23:31:41.144Z,3.20
2023-03-02T23:34:08.741Z,3.20
2023-03-02T23:36:37.927Z,3.20
2023-03-02T23:39:06.312Z,3.10
2023-03-02T23:41:34.137Z,3.10
2023-03-02T23:44:01.407Z,3.00
2023-03-02T23:46:29.773Z,2.90
2023-03-02T23:48:56.840Z,2.90
2023-03-02T23:51:26.362Z,2.90
2023-03-02T23:53:54.135Z,2.90
2023-03-02T23:56:21.916Z,3.00
2023-03-02T23:58:49.626Z,3.00
